createdAt,value
2022-09-04T00:02:38.050Z,10.45
2022-09-04T00:05:17.236Z,11.98
2022-09-04T00:07:58.821Z,10.40
2022-09-04T00:10:39.464Z,14.70
2022-09-04T00:13:13.582Z,19.67
2022-09-04T00:15:46.412Z,17.42
2022-09-04T00:18:23.361Z,23.08
2022-09-04T00:20:58.923Z,16.23
2022-09-04T00:23:36.604Z,16.05
2022-09-04T00:26:10.758Z,16.35
2022-09-04T00:28:43.172Z,14.02
2022-09-04T00:31:19.827Z,11.05
2022-09-04T00:33:56.037Z,13.30
2022-09-04T00:36:27.962Z,19.98
2022-09-04T00:39:01.829Z,9.00
2022-09-04T00:41:33.642Z,15.13
2022-09-04T00:44:29.153Z,19.65
2022-09-04T00:47:14.371Z,17.73
2022-09-04T00:50:09.534Z,22.52
2022-09-04T00:53:02.679Z,18.00
2022-09-04T00:55:57.524Z,12.43
2022-09-04T00:58:38.758Z,15.45
2022-09-04T01:01:07.324Z,10.68
2022-09-04T01:04:11.263Z,16.23
2022-09-04T01:06:50.031Z,15.32
2022-09-04T01:09:48.720Z,29.27
2022-09-04T01:12:28.793Z,16.83
2022-09-04T01:15:12.255Z,14.02
2022-09-04T01:17:48.289Z,14.55
2022-09-04T01:20:28.070Z,15.32
2022-09-04T01:23:11.645Z,21.02
2022-09-04T01:26:05.684Z,20.98
2022-09-04T01:28:41.074Z,10.07
2022-09-04T01:31:17.911Z,16.00
2022-09-04T01:33:55.120Z,12.00
2022-09-04T01:36:33.881Z,14.25
2022-09-04T01:39:03.778Z,15.35
2022-09-04T01:41:39.533Z,15.77
2022-09-04T01:44:10.118Z,17.15
2022-09-04T01:46:47.474Z,13.07
2022-09-04T01:49:25.715Z,12.88
2022-09-04T01:52:02.776Z,15.70
2022-09-04T01:54:50.466Z,13.43
2022-09-04T01:57:33.107Z,16.77
2022-09-04T02:00:07.712Z,11.88
2022-09-04T02:02:50.442Z,13.40
2022-09-04T02:05:27.253Z,12.57
2022-09-04T02:08:06.370Z,11.27
2022-09-04T02:10:39.885Z,10.73
2022-09-04T02:13:18.064Z,19.65
2022-09-04T02:15:59.763Z,14.30
2022-09-04T02:18:45.656Z,10.23
2022-09-04T02:21:24.211Z,13.73
2022-09-04T02:24:06.098Z,11.98
2022-09-04T02:26:42.419Z,9.95
2022-09-04T02:29:21.458Z,10.60
2022-09-04T02:31:57.285Z,17.00
2022-09-04T02:34:36.290Z,13.48
2022-09-04T02:37:14.675Z,12.13
2022-09-04T02:39:56.335Z,13.23
2022-09-04T02:42:32.033Z,15.23
2022-09-04T02:45:15.924Z,13.48
2022-09-04T02:47:50.091Z,13.95
2022-09-04T02:50:31.537Z,11.93
2022-09-04T02:53:13.211Z,15.88
2022-09-04T02:56:14.020Z,21.92
2022-09-04T02:58:57.752Z,22.02
2022-09-04T03:01:35.749Z,9.57
2022-09-04T03:04:11.390Z,16.30
2022-09-04T03:06:51.162Z,17.90
2022-09-04T03:09:25.165Z,22.30
2022-09-04T03:12:01.507Z,12.73
2022-09-04T03:14:37.943Z,17.70
2022-09-04T03:17:17.513Z,26.70
2022-09-04T03:19:53.159Z,16.80
2022-09-04T03:22:28.328Z,22.35
2022-09-04T03:25:08.002Z,12.80
2022-09-04T03:27:36.589Z,17.70
2022-09-04T03:30:08.600Z,16.10
2022-09-04T03:32:48.428Z,17.75
2022-09-04T03:35:27.254Z,13.57
2022-09-04T03:38:10.254Z,23.05
2022-09-04T03:40:43.208Z,16.42
2022-09-04T03:43:36.411Z,21.63
2022-09-04T03:46:19.008Z,20.98
2022-09-04T03:51:40.892Z,22.15
2022-09-04T03:54:24.534Z,19.52
2022-09-04T03:57:09.308Z,24.48
2022-09-04T03:59:50.366Z,14.98
2022-09-04T04:02:27.139Z,12.90
2022-09-04T04:05:21.145Z,17.00
2022-09-04T04:08:05.731Z,26.52
2022-09-04T04:10:48.828Z,18.45
2022-09-04T04:13:43.246Z,23.55
2022-09-04T04:16:27.722Z,21.45
2022-09-04T04:19:10.915Z,19.20
2022-09-04T04:21:57.027Z,22.48
2022-09-04T04:24:54.612Z,22.58
2022-09-04T04:27:41.669Z,25.30
2022-09-04T04:30:12.544Z,16.13
2022-09-04T04:32:59.908Z,17.15
2022-09-04T04:35:36.206Z,19.77
2022-09-04T04:38:21.821Z,25.20
2022-09-04T04:41:05.101Z,18.33
2022-09-04T04:43:46.180Z,21.48
2022-09-04T04:46:23.375Z,11.27
2022-09-04T04:49:10.593Z,13.73
2022-09-04T04:51:51.396Z,11.48
2022-09-04T04:54:36.191Z,14.25
2022-09-04T04:57:14.473Z,21.08
2022-09-04T04:59:49.517Z,15.88
2022-09-04T05:02:27.850Z,16.77
2022-09-04T05:05:03.782Z,16.67
2022-09-04T05:07:38.942Z,26.27
2022-09-04T05:10:18.954Z,20.88
2022-09-04T05:12:56.937Z,14.93
2022-09-04T05:15:36.007Z,31.60
2022-09-04T05:18:20.976Z,15.93
2022-09-04T05:20:56.201Z,26.55
2022-09-04T05:23:34.502Z,26.25
2022-09-04T05:26:13.365Z,25.67
2022-09-04T05:28:57.110Z,33.03
2022-09-04T05:31:37.888Z,19.38
2022-09-04T05:34:13.023Z,23.67
2022-09-04T05:36:52.489Z,23.92
2022-09-04T05:39:30.390Z,22.52
2022-09-04T05:42:25.003Z,26.45
2022-09-04T05:45:04.686Z,20.95
2022-09-04T05:47:44.202Z,38.97
2022-09-04T05:50:38.120Z,29.83
2022-09-04T05:53:20.789Z,17.58
2022-09-04T05:56:05.976Z,24.85
2022-09-04T05:59:04.604Z,20.27
2022-09-04T06:02:06.046Z,22.20
2022-09-04T06:05:04.633Z,26.35
2022-09-04T06:07:41.463Z,18.17
2022-09-04T06:10:18.695Z,17.60
2022-09-04T06:13:15.586Z,18.17
2022-09-04T06:15:55.069Z,16.42
2022-09-04T06:18:49.417Z,20.40
2022-09-04T06:22:08.150Z,30.17
2022-09-04T06:24:59.139Z,25.05
2022-09-04T06:27:45.582Z,29.70
2022-09-04T06:30:15.461Z,22.73
2022-09-04T06:33:11.495Z,26.38
2022-09-04T06:36:13.804Z,17.48
2022-09-04T06:38:56.361Z,17.20
2022-09-04T06:41:43.569Z,16.52
2022-09-04T06:44:29.047Z,26.23
2022-09-04T06:47:12.802Z,18.88
2022-09-04T06:49:51.759Z,21.02
2022-09-04T06:52:26.536Z,18.77
2022-09-04T06:55:00.763Z,20.98
2022-09-04T06:58:01.840Z,27.20
2022-09-04T07:00:39.362Z,22.25
2022-09-04T07:03:25.075Z,21.98
2022-09-04T07:06:05.925Z,25.52
2022-09-04T07:08:45.519Z,25.20
2022-09-04T07:11:21.627Z,29.25
2022-09-04T07:14:17.552Z,28.00
2022-09-04T07:16:56.809Z,11.30
2022-09-04T07:19:59.149Z,17.25
2022-09-04T07:22:51.738Z,21.40
2022-09-04T07:28:18.214Z,15.63
2022-09-04T07:30:54.855Z,9.43
2022-09-04T07:33:33.277Z,20.40
2022-09-04T07:36:08.181Z,15.88
2022-09-04T07:38:50.463Z,7.65
2022-09-04T07:41:27.081Z,16.77
2022-09-04T07:44:03.641Z,11.85
2022-09-04T07:46:41.518Z,6.82
2022-09-04T07:49:17.123Z,12.27
2022-09-04T07:51:53.299Z,10.45
2022-09-04T07:54:41.133Z,13.82
2022-09-04T07:57:24.360Z,13.23
2022-09-04T08:00:06.272Z,15.05
2022-09-04T08:03:12.142Z,17.48
2022-09-04T08:05:46.167Z,13.00
2022-09-04T08:08:42.257Z,16.05
2022-09-04T08:11:24.047Z,14.75
2022-09-04T08:14:13.315Z,11.10
2022-09-04T08:16:48.901Z,23.20
2022-09-04T08:19:40.796Z,13.60
2022-09-04T08:22:13.366Z,11.27
2022-09-04T08:25:14.632Z,13.30
2022-09-04T08:28:08.472Z,14.25
2022-09-04T08:30:44.692Z,15.05
2022-09-04T08:33:28.377Z,10.95
2022-09-04T08:36:01.613Z,13.38
2022-09-04T08:38:44.145Z,12.73
2022-09-04T08:41:41.773Z,14.43
2022-09-04T08:44:41.654Z,8.90
2022-09-04T08:47:38.773Z,10.88
2022-09-04T08:50:20.307Z,19.58
2022-09-04T08:53:22.365Z,14.10
2022-09-04T08:56:23.157Z,18.25
2022-09-04T08:59:35.336Z,12.38
2022-09-04T09:02:27.439Z,7.15
2022-09-04T09:05:17.538Z,13.77
2022-09-04T09:08:14.722Z,11.73
2022-09-04T09:11:24.201Z,11.63
2022-09-04T09:14:27.704Z,18.63
2022-09-04T09:17:12.615Z,16.27
2022-09-04T09:19:54.103Z,13.45
2022-09-04T09:22:38.777Z,14.20
2022-09-04T09:25:17.104Z,7.57
2022-09-04T09:28:26.982Z,14.63
2022-09-04T09:31:19.442Z,15.45
2022-09-04T09:37:13.887Z,10.48
2022-09-04T09:40:10.713Z,12.57
2022-09-04T09:43:16.739Z,9.55
2022-09-04T09:46:08.726Z,9.02
2022-09-04T09:49:15.103Z,10.60
2022-09-04T09:52:16.707Z,14.57
2022-09-04T09:55:25.666Z,19.85
2022-09-04T09:58:35.934Z,15.60
2022-09-04T10:01:19.640Z,11.85
2022-09-04T10:04:34.128Z,9.82
2022-09-04T10:07:40.094Z,10.45
2022-09-04T10:10:37.228Z,16.77
2022-09-04T10:13:31.358Z,11.50
2022-09-04T10:16:16.839Z,11.10
2022-09-04T10:19:23.073Z,6.07
2022-09-04T10:22:38.435Z,10.63
2022-09-04T10:25:47.799Z,12.15
2022-09-04T10:28:49.769Z,12.07
2022-09-04T10:32:11.875Z,16.33
2022-09-04T10:34:58.943Z,18.13
2022-09-04T10:37:51.644Z,10.80
2022-09-04T10:40:39.622Z,9.52
2022-09-04T10:43:37.937Z,18.92
2022-09-04T10:46:13.779Z,11.98
2022-09-04T10:49:11.546Z,8.63
2022-09-04T10:52:17.284Z,18.00
2022-09-04T10:55:17.851Z,15.60
2022-09-04T10:58:10.996Z,14.07
2022-09-04T11:00:51.399Z,12.50
2022-09-04T11:03:44.449Z,9.88
2022-09-04T11:06:42.425Z,14.68
2022-09-04T11:09:28.435Z,8.70
2022-09-04T11:12:18.380Z,10.20
2022-09-04T11:15:16.252Z,14.98
2022-09-04T11:18:19.440Z,8.38
2022-09-04T11:21:31.143Z,10.60
2022-09-04T11:24:58.770Z,15.93
2022-09-04T11:28:20.510Z,9.30
2022-09-04T11:31:35.798Z,6.70
2022-09-04T11:34:52.978Z,14.07
2022-09-04T11:38:07.755Z,7.15
2022-09-04T11:41:29.126Z,9.25
2022-09-04T11:44:36.835Z,11.40
2022-09-04T11:47:43.934Z,7.85
2022-09-04T11:50:48.724Z,8.48
2022-09-04T11:53:56.726Z,10.60
2022-09-04T11:56:57.015Z,5.93
2022-09-04T12:00:23.711Z,18.98
2022-09-04T12:03:38.011Z,10.38
2022-09-04T12:06:33.699Z,8.48
2022-09-04T12:10:08.722Z,11.60
2022-09-04T12:13:25.692Z,17.35
2022-09-04T12:17:00.684Z,15.15
2022-09-04T12:20:14.887Z,10.55
2022-09-04T12:23:34.690Z,12.52
2022-09-04T12:26:51.490Z,9.90
2022-09-04T12:30:11.902Z,12.60
2022-09-04T12:33:30.657Z,17.45
2022-09-04T12:37:06.225Z,12.48
2022-09-04T12:40:19.754Z,17.25
2022-09-04T12:43:29.879Z,12.00
2022-09-04T12:46:23.620Z,4.85
2022-09-04T12:49:32.666Z,7.18
2022-09-04T12:52:32.608Z,9.60
2022-09-04T12:55:33.472Z,9.63
2022-09-04T12:58:33.900Z,13.57
2022-09-04T13:01:38.700Z,11.85
2022-09-04T13:04:28.954Z,7.20
2022-09-04T13:07:38.636Z,13.18
2022-09-04T13:10:33.844Z,5.38
2022-09-04T13:13:31.631Z,8.63
2022-09-04T13:16:20.865Z,6.32
2022-09-04T13:19:19.659Z,11.10
2022-09-04T13:22:23.616Z,12.10
2022-09-04T13:25:14.195Z,12.45
2022-09-04T13:28:19.556Z,8.80
2022-09-04T13:31:27.637Z,10.07
2022-09-04T13:34:20.826Z,8.50
2022-09-04T13:37:16.556Z,8.98
2022-09-04T13:40:20.826Z,8.98
2022-09-04T13:43:48.539Z,12.77
2022-09-04T13:46:35.838Z,13.77
2022-09-04T13:49:26.580Z,10.63
2022-09-04T13:52:12.822Z,11.00
2022-09-04T13:55:07.674Z,8.65
2022-09-04T13:57:57.615Z,9.95
2022-09-04T14:00:53.722Z,9.27
2022-09-04T14:03:43.848Z,17.48
2022-09-04T14:06:34.556Z,16.10
2022-09-04T14:09:15.998Z,11.52
2022-09-04T14:12:26.536Z,18.10
2022-09-04T14:15:41.717Z,14.38
2022-09-04T14:18:45.893Z,14.43
2022-09-04T14:21:42.644Z,16.10
2022-09-04T14:24:40.102Z,12.13
2022-09-04T14:27:39.553Z,9.45
2022-09-04T14:30:29.718Z,15.95
2022-09-04T14:33:24.534Z,12.18
2022-09-04T14:36:42.612Z,14.70
2022-09-04T14:39:31.479Z,9.82
2022-09-04T14:42:41.552Z,12.85
2022-09-04T14:45:58.421Z,14.77
2022-09-04T14:48:46.462Z,15.80
2022-09-04T14:51:36.650Z,8.48
2022-09-04T14:54:32.453Z,11.30
2022-09-04T14:57:29.682Z,7.78
2022-09-04T15:00:26.461Z,13.55
2022-09-04T15:03:23.488Z,23.60
2022-09-04T15:06:12.489Z,6.32
2022-09-04T15:09:03.453Z,15.43
2022-09-04T15:11:44.914Z,6.28
2022-09-04T15:14:39.437Z,13.13
2022-09-04T15:17:28.680Z,4.82
2022-09-04T15:20:22.434Z,12.93
2022-09-04T15:23:07.923Z,11.35
2022-09-04T15:26:03.538Z,10.52
2022-09-04T15:28:51.627Z,14.85
2022-09-04T15:31:43.491Z,9.77
2022-09-04T15:34:38.521Z,7.05
2022-09-04T15:37:33.124Z,6.72
2022-09-04T15:40:19.389Z,12.60
2022-09-04T15:43:17.512Z,5.90
2022-09-04T15:46:08.941Z,9.30
2022-09-04T15:49:03.348Z,8.60
2022-09-04T15:51:50.587Z,9.35
2022-09-04T15:54:58.360Z,5.40
2022-09-04T15:57:57.368Z,7.35
2022-09-04T16:01:16.683Z,14.68
2022-09-04T16:04:19.397Z,9.18
2022-09-04T16:07:36.659Z,9.52
2022-09-04T16:10:25.356Z,6.82
2022-09-04T16:13:21.725Z,7.57
2022-09-04T16:16:15.553Z,9.50
2022-09-04T16:19:12.769Z,10.30
2022-09-04T16:22:02.308Z,8.43
2022-09-04T16:24:47.559Z,8.20
2022-09-04T16:27:40.326Z,6.97
2022-09-04T16:30:35.631Z,13.85
2022-09-04T16:33:36.322Z,14.32
2022-09-04T16:36:31.323Z,12.82
2022-09-04T16:39:24.365Z,6.75
2022-09-04T16:42:23.828Z,6.90
2022-09-04T16:45:11.318Z,6.00
2022-09-04T16:48:34.388Z,7.68
2022-09-04T16:51:39.187Z,14.27
2022-09-04T16:54:30.902Z,9.65
2022-09-04T16:57:20.414Z,4.30
2022-09-04T17:00:21.240Z,8.40
2022-09-04T17:03:18.418Z,14.55
2022-09-04T17:06:06.497Z,12.73
2022-09-04T17:09:01.291Z,12.65
2022-09-04T17:11:55.927Z,15.30
2022-09-04T17:14:49.269Z,7.90
2022-09-04T17:17:36.758Z,14.40
2022-09-04T17:21:26.120Z,8.15
2022-09-04T17:28:56.383Z,12.90
2022-09-04T17:29:08.800Z,14.80
2022-09-04T17:30:06.234Z,9.45
2022-09-04T17:34:28.280Z,8.45
2022-09-04T17:40:39.845Z,6.38
2022-09-04T17:40:50.561Z,10.73
2022-09-04T17:42:41.372Z,10.52
2022-09-04T17:45:51.428Z,8.27
2022-09-04T17:48:44.227Z,6.78
2022-09-04T17:51:38.211Z,13.93
2022-09-04T17:54:29.197Z,15.20
2022-09-04T17:57:22.220Z,8.18
2022-09-04T18:00:11.469Z,13.70
2022-09-04T18:03:05.332Z,18.00
2022-09-04T18:05:53.827Z,9.27
2022-09-04T18:08:52.499Z,7.30
2022-09-04T18:12:00.027Z,8.13
2022-09-04T18:15:14.961Z,5.93
2022-09-04T18:18:04.771Z,8.38
2022-09-04T18:20:58.179Z,12.20
2022-09-04T18:23:58.433Z,12.13
2022-09-04T18:26:53.171Z,9.90
2022-09-04T18:35:20.935Z,8.95
2022-09-04T18:37:20.965Z,9.93
2022-09-04T18:37:21.675Z,7.70
2022-09-04T18:49:59.224Z,5.93
2022-09-04T18:50:39.986Z,12.93
2022-09-04T18:50:53.073Z,11.15
2022-09-04T18:52:30.169Z,9.27
2022-09-04T18:55:21.134Z,9.80
2022-09-04T18:58:35.323Z,12.93
2022-09-04T19:01:34.321Z,8.82
2022-09-04T19:04:52.116Z,10.77
2022-09-04T19:07:38.364Z,14.30
2022-09-04T19:10:37.136Z,13.52
2022-09-04T19:13:35.252Z,11.07
2022-09-04T19:16:20.410Z,7.97
2022-09-04T19:19:17.702Z,13.88
2022-09-04T19:26:45.246Z,9.50
2022-09-04T19:29:30.879Z,7.05
2022-09-04T19:32:23.116Z,17.88
2022-09-04T19:35:18.372Z,11.07
2022-09-04T19:41:10.586Z,14.27
2022-09-04T19:45:57.737Z,11.05
2022-09-04T19:46:16.780Z,7.88
2022-09-04T19:47:55.381Z,10.85
2022-09-04T19:53:29.902Z,8.20
2022-09-04T19:53:57.522Z,18.17
2022-09-04T19:57:14.730Z,10.13
2022-09-04T20:00:33.686Z,18.65
2022-09-04T20:03:34.409Z,10.07
2022-09-04T20:06:27.126Z,12.75
2022-09-04T20:09:24.295Z,12.55
2022-09-04T20:12:15.006Z,8.82
2022-09-04T20:15:30.094Z,8.95
2022-09-04T20:18:17.417Z,13.57
2022-09-04T20:21:15.006Z,4.25
2022-09-04T20:24:11.033Z,14.38
2022-09-04T20:27:07.021Z,13.52
2022-09-04T20:30:03.102Z,15.30
2022-09-04T20:33:04.335Z,8.35
2022-09-04T20:35:52.395Z,5.15
2022-09-04T20:38:53.235Z,11.60
2022-09-04T20:41:35.279Z,5.53
2022-09-04T20:44:22.228Z,5.55
2022-09-04T20:52:40.749Z,9.18
2022-09-04T20:52:50.062Z,6.88
2022-09-04T20:53:20.746Z,6.10
2022-09-04T20:56:03.248Z,5.65
2022-09-04T21:03:07.379Z,7.18
2022-09-04T21:03:21.231Z,8.15
2022-09-04T21:04:43.853Z,8.02
2022-09-04T21:07:31.137Z,5.95
2022-09-04T21:10:10.927Z,6.97
2022-09-04T21:12:45.326Z,11.80
2022-09-04T21:15:27.959Z,6.20
2022-09-04T21:18:32.053Z,11.25
2022-09-04T21:21:39.732Z,8.23
2022-09-04T21:24:39.252Z,9.75
2022-09-04T21:27:32.891Z,7.20
2022-09-04T21:30:08.001Z,10.07
2022-09-04T21:32:58.651Z,19.55
2022-09-04T21:35:55.698Z,10.30
2022-09-04T21:38:59.632Z,11.25
2022-09-04T21:41:49.665Z,10.18
2022-09-04T21:44:59.073Z,8.05
2022-09-04T21:47:49.836Z,14.85
2022-09-04T21:51:03.112Z,4.18
2022-09-04T21:54:23.338Z,13.65
2022-09-04T22:02:29.530Z,10.35
2022-09-04T22:02:35.906Z,11.52
2022-09-04T22:05:04.044Z,8.75
2022-09-04T22:11:51.666Z,17.80
2022-09-04T22:14:26.921Z,10.57
2022-09-04T22:17:40.129Z,11.85
2022-09-04T22:24:17.858Z,11.57
2022-09-04T22:27:26.219Z,18.35
2022-09-04T22:30:15.918Z,26.02
2022-09-04T22:33:27.575Z,32.22
2022-09-04T22:36:52.964Z,31.35
2022-09-04T22:40:18.161Z,28.02
2022-09-04T22:43:15.023Z,27.15
2022-09-04T22:46:32.869Z,27.67
2022-09-04T22:49:40.067Z,13.85
2022-09-04T22:53:04.906Z,21.42
2022-09-04T22:56:23.933Z,15.55
2022-09-04T22:59:37.935Z,27.27
2022-09-04T23:03:08.396Z,15.90
2022-09-04T23:08:21.591Z,16.13
2022-09-04T23:14:02.709Z,25.35
2022-09-04T23:14:06.631Z,26.02
2022-09-04T23:17:18.983Z,33.92
2022-09-04T23:26:38.299Z,29.13
2022-09-04T23:26:45.334Z,27.33
2022-09-04T23:31:07.031Z,33.55
2022-09-04T23:34:50.755Z,26.77
2022-09-04T23:38:33.873Z,16.15
2022-09-04T23:41:28.720Z,12.70
2022-09-04T23:45:05.990Z,16.42
2022-09-04T23:48:44.420Z,29.92
2022-09-04T23:52:14.931Z,33.55
2022-09-04T23:55:26.366Z,20.08
2022-09-04T23:59:10.223Z,25.20
